Time;durP1;ratioP1;P1;durP2;ratioP2;P2;SDS_P1;SDS_P2;PMS_P1;PMS_P2;Temp;Humidity;BMP_temperature;BMP_pressure;BME280_temperature;BME280_humidity;BME280_pressure;Samples;Min_cycle;Max_cycle;Signal;HPM_P1;HPM_P2
2022/06/14 00:00:57;;;;;;;5.20;3.00;;;14.40;99.90;;;;;;5016162;28;20069;-88
2022/06/14 00:03:31;;;;;;;5.60;3.40;;;14.30;99.90;;;;;;5005414;28;20472;-85
2022/06/14 00:06:02;;;;;;;3.65;2.70;;;14.20;99.90;;;;;;4998601;28;20068;-88
2022/06/14 00:08:29;;;;;;;6.43;3.30;;;14.10;99.90;;;;;;5001127;28;20054;-87
2022/06/14 00:10:58;;;;;;;4.13;2.65;;;14.10;99.90;;;;;;5003205;28;20053;-86
2022/06/14 00:13:30;;;;;;;4.85;2.58;;;14.10;99.90;;;;;;5004876;28;20045;-85
2022/06/14 00:15:57;;;;;;;3.78;2.63;;;14.10;99.90;;;;;;5005202;28;20069;-86
2022/06/14 00:18:24;;;;;;;4.35;2.60;;;14.10;99.90;;;;;;5005724;28;20048;-86
2022/06/14 00:20:56;;;;;;;5.45;2.83;;;14.10;99.90;;;;;;5011310;28;20069;-85
2022/06/14 00:23:23;;;;;;;3.65;2.83;;;14.10;99.90;;;;;;5005118;28;20109;-85
2022/06/14 00:25:57;;;;;;;4.10;2.70;;;14.10;99.90;;;;;;4999838;28;20034;-85
2022/06/14 00:28:31;;;;;;;4.97;2.83;;;14.00;99.90;;;;;;5006982;28;20042;-86
2022/06/14 00:31:07;;;;;;;5.85;3.13;;;14.00;99.90;;;;;;5005921;28;20556;-86
2022/06/14 00:33:39;;;;;;;5.78;2.85;;;14.00;99.90;;;;;;5005801;28;20096;-86
2022/06/14 00:36:22;;;;;;;3.58;2.60;;;13.80;99.90;;;;;;5005592;28;20129;-85
2022/06/14 00:38:49;;;;;;;3.20;2.42;;;13.80;99.90;;;;;;4982449;28;20046;-85
2022/06/14 00:41:43;;;;;;;9.27;2.90;;;13.70;99.90;;;;;;4995524;28;20047;-85
2022/06/14 00:44:18;;;;;;;5.32;2.92;;;13.70;99.90;;;;;;4994114;28;20041;-86
2022/06/14 00:46:56;;;;;;;3.72;2.80;;;13.60;99.90;;;;;;5010588;28;20042;-86
2022/06/14 00:49:44;;;;;;;3.25;2.60;;;13.60;99.90;;;;;;4987157;28;20473;-86
2022/06/14 00:52:28;;;;;;;3.22;2.50;;;13.50;99.90;;;;;;4992114;28;20046;-84
2022/06/14 00:55:11;;;;;;;4.97;2.90;;;13.60;99.90;;;;;;4988502;28;20069;-86
2022/06/14 00:57:49;;;;;;;5.03;3.15;;;13.60;99.90;;;;;;5006369;28;20049;-86
2022/06/14 01:00:33;;;;;;;3.13;2.80;;;13.50;99.90;;;;;;5006261;28;20532;-86
2022/06/14 01:03:05;;;;;;;4.57;2.72;;;13.50;99.90;;;;;;5005520;28;20046;-85
2022/06/14 01:08:28;;;;;;;6.40;2.85;;;13.50;99.90;;;;;;5010473;28;20073;-85
2022/06/14 01:10:55;;;;;;;4.53;3.15;;;13.40;99.90;;;;;;5009443;28;20053;-85
2022/06/14 01:13:23;;;;;;;3.85;2.65;;;13.40;99.90;;;;;;5008475;28;20046;-85
2022/06/14 01:15:53;;;;;;;3.00;2.55;;;13.30;99.90;;;;;;5008767;28;20520;-86
2022/06/14 01:18:23;;;;;;;4.53;2.40;;;13.30;99.90;;;;;;5009052;28;20050;-85
2022/06/14 01:20:49;;;;;;;3.08;2.67;;;13.20;99.90;;;;;;5001973;28;20052;-86
2022/06/14 01:23:17;;;;;;;5.20;2.88;;;13.20;99.90;;;;;;5008730;28;20140;-85
2022/06/14 01:25:49;;;;;;;4.38;2.55;;;13.20;99.90;;;;;;5009079;28;20046;-85
2022/06/14 01:28:21;;;;;;;4.32;2.65;;;13.10;99.90;;;;;;5006294;28;20050;-86
2022/06/14 01:30:53;;;;;;;3.00;2.70;;;13.10;99.90;;;;;;4981398;28;20049;-86
2022/06/14 01:33:40;;;;;;;6.35;3.25;;;13.10;99.90;;;;;;5007677;28;20302;-86
2022/06/14 01:36:23;;;;;;;4.90;3.53;;;13.00;99.90;;;;;;5008513;28;20065;-86
2022/06/14 01:39:00;;;;;;;5.07;2.78;;;13.00;99.90;;;;;;5001546;28;20062;-86
2022/06/14 01:41:48;;;;;;;4.35;2.75;;;12.90;99.90;;;;;;5009299;28;20046;-86
2022/06/14 01:44:26;;;;;;;5.13;2.70;;;12.80;99.90;;;;;;4978710;28;20084;-86
2022/06/14 01:47:12;;;;;;;5.32;2.60;;;12.80;99.90;;;;;;5009621;28;20050;-86
2022/06/14 01:52:57;;;;;;;4.15;3.30;;;12.80;99.90;;;;;;5005494;28;20042;-85
2022/06/14 01:55:40;;;;;;;5.68;2.95;;;12.80;99.90;;;;;;5007203;28;20413;-83
2022/06/14 01:58:19;;;;;;;7.35;2.58;;;12.80;99.90;;;;;;5009268;28;20133;-86
2022/06/14 02:01:02;;;;;;;5.47;2.92;;;12.70;99.90;;;;;;5001547;28;20461;-86
2022/06/14 02:06:43;;;;;;;;;;;12.60;99.90;;;;;;4964506;28;20149;-86
2022/06/14 02:09:22;;;;;;;4.45;2.95;;;12.50;99.90;;;;;;5008511;28;19983;-86
2022/06/14 02:11:49;;;;;;;4.10;2.88;;;12.40;99.90;;;;;;5008293;28;20065;-85
2022/06/14 02:14:30;;;;;;;4.28;2.97;;;12.30;99.90;;;;;;5007639;28;20046;-86
2022/06/14 02:17:12;;;;;;;5.68;2.78;;;12.30;99.90;;;;;;5001063;28;20054;-86
2022/06/14 02:19:50;;;;;;;5.13;3.00;;;12.30;99.90;;;;;;5008151;28;20531;-86
2022/06/14 02:22:25;;;;;;;3.33;2.78;;;12.30;99.90;;;;;;5008716;28;20056;-86
2022/06/14 02:25:20;;;;;;;5.03;2.80;;;12.30;99.90;;;;;;5005012;28;20046;-86
2022/06/14 02:28:09;;;;;;;5.43;3.00;;;12.20;99.90;;;;;;5007285;28;20045;-86
2022/06/14 02:30:45;;;;;;;4.13;2.97;;;12.20;99.90;;;;;;5023391;28;20046;-85
2022/06/14 02:33:24;;;;;;;4.82;2.85;;;12.20;99.90;;;;;;5003235;28;20106;-86
2022/06/14 02:35:52;;;;;;;5.43;3.13;;;12.20;99.90;;;;;;5004609;28;20161;-86
2022/06/14 02:38:30;;;;;;;4.70;3.20;;;12.20;99.90;;;;;;4992841;28;20077;-86
2022/06/14 02:41:10;;;;;;;3.30;2.78;;;12.10;99.90;;;;;;5004625;28;20069;-86
2022/06/14 02:43:47;;;;;;;3.50;2.67;;;12.10;99.90;;;;;;5006303;28;20132;-86
2022/06/14 02:46:48;;;;;;;4.47;3.10;;;12.10;99.90;;;;;;5007492;28;20046;-86
2022/06/14 02:49:33;;;;;;;10.05;2.95;;;12.10;99.90;;;;;;5018693;28;20137;-86
2022/06/14 02:52:04;;;;;;;6.32;3.08;;;12.00;99.90;;;;;;4996388;28;20057;-86
2022/06/14 02:54:40;;;;;;;7.45;3.42;;;11.90;99.90;;;;;;5007042;28;20085;-87
2022/06/14 02:57:26;;;;;;;4.95;3.30;;;11.90;99.90;;;;;;5007499;28;20088;-86
2022/06/14 03:00:03;;;;;;;5.13;3.03;;;11.90;99.90;;;;;;5002375;28;20073;-85
2022/06/14 03:02:37;;;;;;;4.55;3.40;;;11.80;99.90;;;;;;5006836;28;20126;-86
2022/06/14 03:05:39;;;;;;;3.60;3.20;;;11.90;99.90;;;;;;4977273;28;20081;-86
2022/06/14 03:08:06;;;;;;;6.47;3.35;;;11.90;99.90;;;;;;5005023;28;20041;-87
2022/06/14 03:10:44;;;;;;;6.05;3.67;;;11.90;99.90;;;;;;4988640;28;20523;-86
2022/06/14 03:13:57;;;;;;;4.80;3.17;;;11.90;99.90;;;;;;4989187;28;20053;-87
2022/06/14 03:16:31;;;;;;;4.53;3.70;;;11.70;99.90;;;;;;4954329;28;20046;-88
2022/06/14 03:19:12;;;;;;;4.40;3.38;;;11.70;99.90;;;;;;5002349;28;20085;-86
2022/06/14 03:22:05;;;;;;;4.63;2.90;;;11.70;99.90;;;;;;5004801;28;20184;-87
2022/06/14 03:24:39;;;;;;;3.67;3.10;;;11.70;99.90;;;;;;5004877;28;20053;-86
2022/06/14 03:27:25;;;;;;;5.32;2.88;;;11.70;99.90;;;;;;5003863;28;20569;-86
2022/06/14 03:30:25;;;;;;;7.82;3.28;;;11.60;99.90;;;;;;4989504;28;20042;-86
2022/06/14 03:33:17;;;;;;;5.40;3.00;;;11.60;99.90;;;;;;4992693;28;20149;-86
2022/06/14 03:35:48;;;;;;;5.63;3.15;;;11.60;99.90;;;;;;4987075;28;20134;-86
2022/06/14 03:38:50;;;;;;;5.05;3.40;;;11.60;99.90;;;;;;4989647;28;20046;-86
2022/06/14 03:41:26;;;;;;;7.10;3.20;;;11.60;99.90;;;;;;5017417;28;20523;-87
2022/06/14 03:44:01;;;;;;;5.05;3.30;;;11.60;99.90;;;;;;5005932;28;20463;-86
2022/06/14 03:46:40;;;;;;;6.63;3.30;;;11.60;99.90;;;;;;5004550;28;20038;-86
2022/06/14 03:49:17;;;;;;;3.97;3.00;;;11.50;99.90;;;;;;5020932;28;20046;-86
2022/06/14 03:51:54;;;;;;;3.30;2.72;;;11.50;99.90;;;;;;5022130;28;20052;-87
2022/06/14 03:54:55;;;;;;;4.22;3.08;;;11.60;99.90;;;;;;5002559;28;20049;-87
2022/06/14 03:57:48;;;;;;;5.05;3.10;;;11.50;99.90;;;;;;4969916;28;20110;-87
2022/06/14 04:00:18;;;;;;;5.50;3.22;;;11.60;99.90;;;;;;5017570;28;20038;-87
2022/06/14 04:02:53;;;;;;;4.60;2.75;;;11.60;99.90;;;;;;5002721;28;20068;-86
2022/06/14 04:05:44;;;;;;;4.90;2.75;;;11.50;99.90;;;;;;5016801;28;20044;-87
2022/06/14 04:08:46;;;;;;;5.93;3.20;;;11.60;99.90;;;;;;5019580;28;20042;-87
2022/06/14 04:11:36;;;;;;;5.80;3.30;;;11.60;99.90;;;;;;4997208;28;20505;-86
2022/06/14 04:14:41;;;;;;;5.47;3.00;;;11.60;99.90;;;;;;4981633;28;20052;-86
2022/06/14 04:17:39;;;;;;;4.97;4.03;;;11.60;99.90;;;;;;4997179;28;20054;-86
2022/06/14 04:20:18;;;;;;;5.22;3.78;;;11.70;99.90;;;;;;4998909;28;20064;-86
2022/06/14 04:23:09;;;;;;;7.05;3.83;;;11.70;99.90;;;;;;4988869;28;20049;-86
2022/06/14 04:25:53;;;;;;;9.77;4.28;;;11.70;99.90;;;;;;4999427;28;20046;-87
2022/06/14 04:28:28;;;;;;;8.90;4.07;;;11.80;99.90;;;;;;5002624;28;20132;-86
2022/06/14 04:31:14;;;;;;;8.82;4.15;;;11.80;99.90;;;;;;5000334;28;20046;-87
2022/06/14 04:33:53;;;;;;;7.60;4.53;;;11.80;99.90;;;;;;5002403;28;20053;-87
2022/06/14 04:36:32;;;;;;;9.38;4.35;;;11.90;99.90;;;;;;5002776;28;20129;-86
2022/06/14 04:39:22;;;;;;;6.28;3.42;;;11.90;99.90;;;;;;5002622;28;20046;-87
2022/06/14 04:42:02;;;;;;;5.30;3.47;;;12.00;99.90;;;;;;5017497;28;20060;-86
2022/06/14 04:44:45;;;;;;;7.72;4.20;;;12.00;99.90;;;;;;5002699;28;20050;-86
2022/06/14 04:47:26;;;;;;;7.40;4.25;;;12.10;99.90;;;;;;5005326;28;20140;-86
2022/06/14 04:50:11;;;;;;;9.05;3.75;;;12.10;99.90;;;;;;5004532;28;20038;-86
2022/06/14 04:52:45;;;;;;;9.55;3.78;;;12.10;99.90;;;;;;5015307;28;20433;-86
2022/06/14 04:55:20;;;;;;;6.60;3.22;;;12.10;99.90;;;;;;4999099;28;20045;-86
2022/06/14 04:57:58;;;;;;;7.32;3.50;;;12.10;99.90;;;;;;5000860;28;20068;-86
2022/06/14 05:00:39;;;;;;;4.60;4.20;;;12.20;99.90;;;;;;5015359;28;20047;-86
2022/06/14 05:03:15;;;;;;;6.20;4.20;;;12.20;99.90;;;;;;4999415;28;20074;-85
2022/06/14 05:05:52;;;;;;;10.52;5.43;;;12.20;99.90;;;;;;4987556;28;20439;-85
2022/06/14 05:08:33;;;;;;;9.45;4.50;;;12.30;99.90;;;;;;5003409;28;20065;-86
2022/06/14 05:11:19;;;;;;;8.05;4.72;;;12.30;99.90;;;;;;4996018;28;20046;-86
2022/06/14 05:14:03;;;;;;;6.60;4.15;;;12.30;99.90;;;;;;5020042;28;20100;-86
2022/06/14 05:16:44;;;;;;;7.85;4.68;;;12.30;99.90;;;;;;5003694;28;20038;-85
2022/06/14 05:19:16;;;;;;;10.45;4.88;;;12.20;99.90;;;;;;4990565;28;20502;-85
2022/06/14 05:21:51;;;;;;;9.05;5.25;;;12.20;99.90;;;;;;4995702;28;20137;-86
2022/06/14 05:24:19;;;;;;;13.40;5.57;;;12.20;99.90;;;;;;5000547;28;20158;-86
2022/06/14 05:26:51;;;;;;;9.88;5.55;;;12.30;99.90;;;;;;5000204;28;20134;-85
2022/06/14 05:29:37;;;;;;;11.70;5.55;;;12.40;99.90;;;;;;4994077;28;20133;-86
2022/06/14 05:32:23;;;;;;;6.30;4.93;;;12.40;99.90;;;;;;4997616;28;20038;-86
2022/06/14 05:35:39;;;;;;;6.53;4.55;;;12.40;99.90;;;;;;4981063;28;20037;-85
2022/06/14 05:38:45;;;;;;;7.88;4.90;;;12.50;99.90;;;;;;5001144;28;20050;-85
2022/06/14 05:41:26;;;;;;;6.15;5.07;;;12.60;99.90;;;;;;4956322;28;20045;-85
2022/06/14 05:44:29;;;;;;;8.65;5.50;;;12.70;99.90;;;;;;5017813;28;20046;-86
2022/06/14 05:47:01;;;;;;;8.55;5.20;;;12.70;99.90;;;;;;5010114;28;20050;-85
2022/06/14 05:49:34;;;;;;;7.35;4.72;;;12.70;99.90;;;;;;5000730;28;20105;-87
2022/06/14 05:52:17;;;;;;;8.77;5.00;;;12.80;99.90;;;;;;5006260;28;20046;-86
2022/06/14 05:55:00;;;;;;;7.43;5.28;;;12.90;99.90;;;;;;5022567;28;20044;-87
2022/06/14 05:57:48;;;;;;;9.35;5.65;;;13.00;99.90;;;;;;5004702;28;20047;-88
2022/06/14 06:00:30;;;;;;;7.43;5.15;;;13.40;99.90;;;;;;4992860;28;20038;-88
2022/06/14 06:03:07;;;;;;;8.57;5.55;;;13.70;99.90;;;;;;5002717;28;20046;-87
2022/06/14 06:05:50;;;;;;;9.65;5.30;;;13.90;99.90;;;;;;5009498;28;20065;-87
2022/06/14 06:08:43;;;;;;;13.68;6.70;;;14.10;99.90;;;;;;5021763;28;20094;-87
2022/06/14 06:11:26;;;;;;;7.18;5.53;;;14.30;99.90;;;;;;5017612;28;20125;-89
2022/06/14 06:14:10;;;;;;;8.00;5.22;;;14.40;99.90;;;;;;4997217;28;20068;-89
2022/06/14 06:16:55;;;;;;;6.90;6.03;;;14.40;99.90;;;;;;4983023;28;20137;-84
2022/06/14 06:19:46;;;;;;;12.73;5.90;;;14.50;99.90;;;;;;4987542;28;20042;-87
2022/06/14 06:22:45;;;;;;;9.35;6.07;;;14.50;99.90;;;;;;5004023;28;20413;-86
2022/06/14 06:25:44;;;;;;;7.13;5.88;;;14.60;99.90;;;;;;5017902;28;20192;-87
2022/06/14 06:28:29;;;;;;;;;;;14.50;99.90;;;;;;5001063;28;20058;-86
2022/06/14 06:31:19;;;;;;;8.52;6.13;;;14.40;99.90;;;;;;5006918;28;19929;-86
2022/06/14 06:33:49;;;;;;;10.52;6.10;;;14.50;99.90;;;;;;5012427;28;20050;-87
2022/06/14 06:36:31;;;;;;;9.70;6.32;;;14.40;99.90;;;;;;5006206;28;20081;-86
2022/06/14 06:39:16;;;;;;;10.38;6.22;;;14.40;99.90;;;;;;4994589;28;20092;-87
2022/06/14 06:41:51;;;;;;;8.13;5.95;;;14.50;99.90;;;;;;4990566;28;20049;-86
2022/06/14 06:44:38;;;;;;;7.97;5.95;;;14.50;99.90;;;;;;5006820;28;20061;-87
2022/06/14 06:47:05;;;;;;;8.75;6.25;;;14.60;99.90;;;;;;5021942;28;20046;-86
2022/06/14 06:49:46;;;;;;;9.55;5.20;;;14.70;99.90;;;;;;5006780;28;20061;-86
2022/06/14 06:52:15;;;;;;;9.40;5.95;;;14.80;99.90;;;;;;5016708;28;20524;-86
2022/06/14 06:54:50;;;;;;;7.35;5.55;;;14.90;99.90;;;;;;5005733;28;20049;-87
2022/06/14 06:57:21;;;;;;;8.57;5.70;;;15.00;99.90;;;;;;5006404;28;20481;-86
2022/06/14 06:59:57;;;;;;;8.18;5.63;;;15.10;99.90;;;;;;5006771;28;20507;-86
2022/06/14 07:02:32;;;;;;;12.57;5.70;;;15.20;99.90;;;;;;5006543;28;20096;-86
2022/06/14 07:05:03;;;;;;;8.13;6.05;;;15.40;99.90;;;;;;5005262;28;20140;-86
2022/06/14 07:08:02;;;;;;;7.93;5.53;;;15.50;99.90;;;;;;5005944;28;20103;-86
2022/06/14 07:10:44;;;;;;;8.40;5.78;;;15.70;99.90;;;;;;5004530;28;20061;-86
2022/06/14 07:13:50;;;;;;;10.75;6.40;;;15.80;99.90;;;;;;5003640;28;20141;-86
2022/06/14 07:16:26;;;;;;;10.80;5.32;;;16.00;99.90;;;;;;5002377;28;20118;-87
2022/06/14 07:19:08;;;;;;;6.88;5.20;;;16.10;99.90;;;;;;5002207;28;20046;-86
2022/06/14 07:21:48;;;;;;;7.18;4.88;;;16.20;99.90;;;;;;5005883;28;20145;-86
2022/06/14 07:24:14;;;;;;;7.60;4.32;;;16.40;99.90;;;;;;5004374;28;20132;-86
2022/06/14 07:26:47;;;;;;;8.27;4.35;;;16.50;99.90;;;;;;5002679;28;20149;-86
2022/06/14 07:29:32;;;;;;;8.00;4.43;;;16.70;99.90;;;;;;5020470;28;20038;-86
2022/06/14 07:32:17;;;;;;;7.95;3.47;;;16.80;99.90;;;;;;5005908;28;20073;-86
2022/06/14 07:34:45;;;;;;;5.18;4.18;;;17.00;99.90;;;;;;5004377;28;20042;-86
2022/06/14 07:37:20;;;;;;;8.45;4.35;;;17.10;99.90;;;;;;5016492;28;20053;-87
2022/06/14 07:40:11;;;;;;;6.13;3.58;;;17.30;99.90;;;;;;5005394;28;20050;-86
2022/06/14 07:42:52;;;;;;;3.92;3.33;;;17.40;99.90;;;;;;5005171;28;20066;-87
2022/06/14 07:45:38;;;;;;;7.72;4.38;;;17.50;99.90;;;;;;5004522;28;20046;-87
2022/06/14 07:48:26;;;;;;;5.90;4.18;;;17.60;99.90;;;;;;5016446;28;20062;-86
2022/06/14 07:51:21;;;;;;;5.40;3.40;;;17.80;99.90;;;;;;5017730;28;20078;-87
2022/06/14 07:54:06;;;;;;;6.03;3.25;;;17.90;99.90;;;;;;5012182;28;20335;-86
2022/06/14 07:56:45;;;;;;;4.60;3.92;;;18.00;99.90;;;;;;5003637;28;20137;-86
2022/06/14 07:59:28;;;;;;;4.32;2.90;;;18.10;99.90;;;;;;5001470;28;20046;-86
2022/06/14 08:02:12;;;;;;;7.25;3.10;;;18.20;99.90;;;;;;5004350;28;20132;-86
2022/06/14 08:04:52;;;;;;;4.80;3.08;;;18.30;99.90;;;;;;5015929;28;20049;-86
2022/06/14 08:07:25;;;;;;;4.10;2.70;;;18.40;99.90;;;;;;5004286;28;20425;-86
2022/06/14 08:09:58;;;;;;;8.23;3.30;;;18.60;99.90;;;;;;4998345;28;20409;-86
2022/06/14 08:12:34;;;;;;;6.63;2.95;;;18.70;99.90;;;;;;5003758;28;20042;-87
2022/06/14 08:15:12;;;;;;;10.20;3.45;;;18.80;99.90;;;;;;5000760;28;20043;-87
2022/06/14 08:17:57;;;;;;;7.78;3.40;;;18.90;99.90;;;;;;5003050;28;20045;-87
2022/06/14 08:20:27;;;;;;;7.43;3.38;;;19.00;99.90;;;;;;5003199;28;20109;-86
2022/06/14 08:23:04;;;;;;;6.05;3.28;;;19.20;99.90;;;;;;5003420;28;20046;-87
2022/06/14 08:25:40;;;;;;;7.38;3.58;;;19.30;99.90;;;;;;4999450;28;20042;-87
2022/06/14 08:28:22;;;;;;;6.20;3.22;;;19.40;99.90;;;;;;4993057;28;20775;-87
2022/06/14 08:31:14;;;;;;;11.30;4.53;;;19.40;99.90;;;;;;5019489;28;20042;-86
2022/06/14 08:33:54;;;;;;;5.15;3.25;;;19.50;99.90;;;;;;5002326;28;20123;-86
2022/06/14 08:36:26;;;;;;;6.45;3.17;;;19.60;99.90;;;;;;5001858;28;20060;-87
2022/06/14 08:38:58;;;;;;;5.82;2.95;;;19.70;99.90;;;;;;5003372;28;20137;-87
2022/06/14 08:41:50;;;;;;;6.30;3.03;;;19.90;99.90;;;;;;5020202;28;20050;-86
2022/06/14 08:44:21;;;;;;;5.43;3.35;;;19.90;99.90;;;;;;4986398;28;20121;-87
2022/06/14 08:47:04;;;;;;;4.55;2.85;;;20.00;99.90;;;;;;5002592;28;20062;-86
2022/06/14 08:50:13;;;;;;;4.28;3.15;;;20.10;99.90;;;;;;4997968;28;20501;-86
2022/06/14 08:52:50;;;;;;;5.32;3.30;;;20.20;99.90;;;;;;4960283;28;20049;-86
2022/06/14 08:55:35;;;;;;;5.43;3.35;;;20.20;99.90;;;;;;4999395;28;20073;-87
2022/06/14 08:58:10;;;;;;;5.65;2.70;;;20.20;99.90;;;;;;4988202;28;20042;-86
2022/06/14 09:00:56;;;;;;;5.32;2.80;;;20.30;99.90;;;;;;5002611;28;20054;-86
2022/06/14 09:03:44;;;;;;;6.15;3.40;;;20.30;99.90;;;;;;5001899;28;20046;-86
2022/06/14 09:06:34;;;;;;;5.15;2.85;;;20.50;99.90;;;;;;4985934;28;20046;-87
2022/06/14 09:09:42;;;;;;;4.10;2.70;;;20.60;99.90;;;;;;5001171;28;20046;-86
2022/06/14 09:12:48;;;;;;;6.20;3.40;;;20.70;99.90;;;;;;5020306;28;20038;-86
2022/06/14 09:15:19;;;;;;;4.82;2.80;;;20.80;99.90;;;;;;5008208;28;20038;-86
2022/06/14 09:17:46;;;;;;;4.57;2.70;;;20.90;99.90;;;;;;5003579;28;20060;-87
2022/06/14 09:20:42;;;;;;;4.65;2.80;;;21.00;99.90;;;;;;4996030;28;20046;-87
2022/06/14 09:23:52;;;;;;;6.57;3.67;;;21.10;99.80;;;;;;4995474;28;20046;-87
2022/06/14 09:26:29;;;;;;;4.88;3.03;;;21.20;99.40;;;;;;4949110;28;20057;-86
2022/06/14 09:29:16;;;;;;;6.63;3.70;;;21.30;99.70;;;;;;5005198;28;20046;-86
2022/06/14 09:32:29;;;;;;;3.80;3.13;;;21.30;96.10;;;;;;5006357;28;20149;-86
2022/06/14 09:35:31;;;;;;;7.38;3.00;;;21.40;96.50;;;;;;4954653;28;20130;-87
2022/06/14 09:38:35;;;;;;;7.10;3.00;;;21.40;95.20;;;;;;5021756;28;20042;-86
2022/06/14 09:41:24;;;;;;;4.53;2.55;;;21.50;98.60;;;;;;5000792;28;20054;-86
2022/06/14 09:44:33;;;;;;;4.35;3.03;;;21.60;97.10;;;;;;4997408;28;20418;-87
2022/06/14 09:47:33;;;;;;;4.15;2.65;;;21.70;95.90;;;;;;4976301;28;20048;-86
2022/06/14 09:50:35;;;;;;;5.93;3.10;;;21.80;94.60;;;;;;5017521;28;20038;-87
2022/06/14 09:53:33;;;;;;;6.25;2.90;;;21.80;95.50;;;;;;5020824;28;20160;-87
2022/06/14 09:56:02;;;;;;;4.40;2.90;;;21.90;93.20;;;;;;4995557;28;20136;-86
2022/06/14 09:59:04;;;;;;;4.65;2.83;;;21.80;92.40;;;;;;4989411;28;20045;-86
2022/06/14 10:02:00;;;;;;;4.30;2.90;;;21.80;93.80;;;;;;5021039;28;20046;-87
2022/06/14 10:05:17;;;;;;;5.93;3.22;;;22.00;95.40;;;;;;5002013;28;20244;-86
2022/06/14 10:08:19;;;;;;;8.93;4.53;;;22.10;92.70;;;;;;4998702;28;20037;-87
2022/06/14 10:11:07;;;;;;;4.90;3.33;;;22.10;91.00;;;;;;5003259;28;20042;-86
2022/06/14 10:13:47;;;;;;;4.25;2.40;;;22.10;91.20;;;;;;5005853;28;20137;-86
2022/06/14 10:16:32;;;;;;;7.70;2.30;;;22.30;92.10;;;;;;4999457;28;20042;-86
2022/06/14 10:19:19;;;;;;;4.68;2.50;;;22.30;85.70;;;;;;5020269;28;20102;-87
2022/06/14 10:22:18;;;;;;;6.33;2.23;;;22.40;87.30;;;;;;4994373;28;20046;-87
2022/06/14 10:24:45;;;;;;;;;;;22.40;83.90;;;;;;5004264;28;20100;-86
2022/06/14 10:31:19;;;;;;;5.83;2.60;;;22.40;81.60;;;;;;5021369;28;20088;-87
2022/06/14 10:34:02;;;;;;;4.95;2.38;;;22.50;81.50;;;;;;4970683;28;20717;-86
2022/06/14 10:36:44;;;;;;;5.05;2.25;;;22.60;80.90;;;;;;4998291;28;20145;-87
2022/06/14 10:39:43;;;;;;;3.22;1.85;;;22.80;83.30;;;;;;4988806;28;20073;-87
2022/06/14 10:42:37;;;;;;;5.63;3.03;;;23.00;80.30;;;;;;4989139;28;20473;-87
2022/06/14 10:45:17;;;;;;;3.28;2.20;;;23.20;81.20;;;;;;5018294;28;20038;-86
2022/06/14 10:48:15;;;;;;;5.72;2.42;;;23.30;81.90;;;;;;4997795;28;20484;-87
2022/06/14 10:50:45;;;;;;;2.80;2.08;;;23.30;80.50;;;;;;5005159;28;20456;-87
2022/06/14 10:53:27;;;;;;;3.92;2.13;;;23.60;81.90;;;;;;5004075;28;20043;-87
2022/06/14 10:56:02;;;;;;;4.55;2.22;;;23.70;78.20;;;;;;5005282;28;20469;-86
2022/06/14 10:59:18;;;;;;;3.78;2.53;;;23.60;72.70;;;;;;5004174;28;20053;-87
2022/06/14 11:01:51;;;;;;;5.25;2.17;;;23.40;73.80;;;;;;4992704;28;20069;-86
2022/06/14 11:04:47;;;;;;;6.32;2.40;;;23.50;74.20;;;;;;5019305;28;20111;-87
2022/06/14 11:07:31;;;;;;;4.18;2.22;;;23.60;73.60;;;;;;5000533;28;20034;-87
2022/06/14 11:10:40;;;;;;;5.78;2.30;;;23.50;68.80;;;;;;4999949;28;20084;-86
2022/06/14 11:13:28;;;;;;;6.40;2.58;;;23.50;70.40;;;;;;4996060;28;20049;-86
2022/06/14 11:16:19;;;;;;;;;;;23.50;68.30;;;;;;4996412;28;20039;-86
2022/06/14 11:18:54;;;;;;;3.30;2.28;;;23.60;72.60;;;;;;4997473;28;20008;-87
2022/06/14 11:21:46;;;;;;;7.75;2.25;;;23.90;74.00;;;;;;5021774;28;20038;-86
2022/06/14 11:24:21;;;;;;;6.32;2.45;;;24.10;71.40;;;;;;5001853;28;20045;-87
2022/06/14 11:26:54;;;;;;;5.70;2.50;;;24.40;72.80;;;;;;4987211;28;20054;-87
2022/06/14 11:29:48;;;;;;;2.85;2.40;;;24.40;69.40;;;;;;5005063;28;20042;-86
2022/06/14 11:32:29;;;;;;;5.57;2.75;;;24.40;72.60;;;;;;5014590;28;20041;-87
2022/06/14 11:35:36;;;;;;;3.75;2.60;;;24.50;71.40;;;;;;4983517;28;20497;-86
2022/06/14 11:38:55;;;;;;;6.40;2.90;;;24.50;69.50;;;;;;4987258;28;20112;-87
2022/06/14 11:41:25;;;;;;;5.72;3.13;;;24.50;69.50;;;;;;4942869;29;20150;-87
2022/06/14 11:44:07;;;;;;;4.90;2.63;;;24.40;69.70;;;;;;4939748;29;20047;-87
2022/06/14 11:47:16;;;;;;;4.70;2.88;;;24.50;69.80;;;;;;4987559;28;20046;-87
2022/06/14 11:49:50;;;;;;;8.00;3.15;;;24.60;68.80;;;;;;5014616;28;20050;-86
2022/06/14 11:52:47;;;;;;;5.25;2.90;;;24.60;69.30;;;;;;5004021;28;20062;-86
2022/06/14 11:55:28;;;;;;;3.95;3.42;;;24.80;72.80;;;;;;5017988;28;20105;-85
2022/06/14 11:58:22;;;;;;;4.75;2.55;;;25.10;68.30;;;;;;4999404;28;20141;-86
2022/06/14 12:01:15;;;;;;;5.78;2.30;;;25.20;68.30;;;;;;5007855;28;20057;-86
2022/06/14 12:03:44;;;;;;;4.05;2.90;;;25.30;68.60;;;;;;4996550;28;20579;-86
2022/06/14 12:06:51;;;;;;;5.93;2.97;;;25.30;66.40;;;;;;4996040;28;20050;-86
2022/06/14 12:09:41;;;;;;;4.20;2.92;;;25.20;66.20;;;;;;5018399;28;20418;-87
2022/06/14 12:12:14;;;;;;;5.03;3.00;;;25.20;67.80;;;;;;4996123;28;20118;-86
2022/06/14 12:15:10;;;;;;;5.80;2.90;;;25.30;68.30;;;;;;5000099;28;20056;-86
2022/06/14 12:17:48;;;;;;;3.95;2.90;;;25.30;67.80;;;;;;4982524;28;20046;-87
2022/06/14 12:20:25;;;;;;;5.63;2.97;;;25.40;68.50;;;;;;4990354;28;20068;-87
2022/06/14 12:23:12;;;;;;;6.10;3.10;;;25.60;70.90;;;;;;4999428;28;20523;-85
2022/06/14 12:28:57;;;;;;;7.32;3.13;;;25.90;69.60;;;;;;5018383;28;20116;-86
2022/06/14 12:31:39;;;;;;;5.30;3.08;;;26.10;65.80;;;;;;5001048;28;20042;-86
2022/06/14 12:34:29;;;;;;;4.18;2.72;;;26.30;69.80;;;;;;4983816;28;20049;-87
2022/06/14 12:37:13;;;;;;;5.05;2.80;;;26.20;64.30;;;;;;4978030;28;20050;-86
2022/06/14 12:40:15;;;;;;;7.18;2.67;;;26.20;61.00;;;;;;4996150;28;20046;-87
2022/06/14 12:43:05;;;;;;;5.95;2.65;;;26.30;64.60;;;;;;5012199;28;20683;-86
2022/06/14 12:45:48;;;;;;;4.05;2.90;;;26.30;62.60;;;;;;4999041;28;20118;-86
2022/06/14 12:48:36;;;;;;;3.15;2.55;;;26.50;64.30;;;;;;4999806;28;20145;-87
2022/06/14 12:51:15;;;;;;;4.13;2.60;;;26.60;62.80;;;;;;4999014;28;20136;-86
2022/06/14 12:53:48;;;;;;;3.25;2.40;;;26.70;59.60;;;;;;4998836;28;20136;-86
2022/06/14 12:56:29;;;;;;;3.88;2.53;;;26.50;57.30;;;;;;5000577;28;20034;-86
2022/06/14 12:59:16;;;;;;;4.78;2.40;;;26.30;57.90;;;;;;4981507;28;20034;-86
2022/06/14 13:01:56;;;;;;;6.50;2.65;;;26.40;61.50;;;;;;5001708;28;20044;-86
2022/06/14 13:04:34;;;;;;;3.63;2.50;;;26.60;59.70;;;;;;5019301;28;20050;-86
2022/06/14 13:07:20;;;;;;;4.50;2.50;;;26.80;60.30;;;;;;5005679;28;20044;-86
2022/06/14 13:10:04;;;;;;;5.80;2.50;;;27.00;58.10;;;;;;4994850;28;20066;-86
2022/06/14 13:12:54;;;;;;;3.22;2.45;;;27.10;57.40;;;;;;5005974;28;20052;-86
2022/06/14 13:15:31;;;;;;;3.25;2.53;;;27.10;55.20;;;;;;5002706;28;20046;-86
2022/06/14 13:18:03;;;;;;;4.07;2.63;;;27.20;59.20;;;;;;5018322;28;20033;-86
2022/06/14 13:21:01;;;;;;;3.75;2.75;;;27.30;58.60;;;;;;5001818;28;20359;-86
2022/06/14 13:23:33;;;;;;;;;;;27.50;56.80;;;;;;5006739;28;20050;-86
2022/06/14 13:26:45;;;;;;;4.65;2.28;;;27.50;55.90;;;;;;5002328;28;19921;-87
2022/06/14 13:29:28;;;;;;;4.05;2.97;;;27.70;55.80;;;;;;5016228;28;20045;-86
2022/06/14 13:32:10;;;;;;;4.35;2.30;;;27.80;57.70;;;;;;5019284;28;20044;-86
2022/06/14 13:35:01;;;;;;;5.03;2.22;;;28.00;55.50;;;;;;5012526;28;20045;-86
2022/06/14 13:37:52;;;;;;;5.57;2.45;;;28.20;54.60;;;;;;4994925;28;20049;-86
2022/06/14 13:40:46;;;;;;;2.63;1.95;;;28.10;52.30;;;;;;4995389;28;20041;-86
2022/06/14 13:43:36;;;;;;;4.45;2.20;;;28.10;51.90;;;;;;5003068;28;20085;-86
2022/06/14 13:46:19;;;;;;;3.20;2.30;;;27.90;51.10;;;;;;5003269;28;20056;-86
2022/06/14 13:49:15;;;;;;;3.47;2.10;;;27.80;52.50;;;;;;4995141;28;20049;-86
2022/06/14 13:52:09;;;;;;;3.72;2.60;;;28.00;53.20;;;;;;5004595;28;20060;-86
2022/06/14 13:54:52;;;;;;;5.55;2.30;;;28.20;52.90;;;;;;5018922;28;20456;-86
2022/06/14 13:57:28;;;;;;;4.95;2.65;;;28.50;53.20;;;;;;5003676;28;20408;-86
2022/06/14 14:00:02;;;;;;;5.63;2.58;;;28.60;52.50;;;;;;4999670;28;20122;-86
2022/06/14 14:02:50;;;;;;;4.95;2.58;;;28.80;51.60;;;;;;5001949;28;20054;-86
2022/06/14 14:05:34;;;;;;;5.60;2.75;;;28.60;51.20;;;;;;5018127;28;20128;-85
2022/06/14 14:08:23;;;;;;;4.47;2.42;;;28.80;53.80;;;;;;5013737;28;20420;-86
2022/06/14 14:11:25;;;;;;;3.80;2.60;;;28.90;51.40;;;;;;5020383;28;20125;-86
2022/06/14 14:14:07;;;;;;;3.15;2.33;;;28.80;51.10;;;;;;4941317;29;20154;-86
2022/06/14 14:16:44;;;;;;;4.32;2.95;;;28.80;50.40;;;;;;4985484;28;20049;-86
2022/06/14 14:19:56;;;;;;;5.25;3.08;;;28.70;50.20;;;;;;4998703;28;20038;-86
2022/06/14 14:22:40;;;;;;;4.15;2.40;;;28.70;50.80;;;;;;4980325;28;20060;-86
2022/06/14 14:25:20;;;;;;;4.40;2.22;;;29.10;50.50;;;;;;5012482;28;20509;-87
2022/06/14 14:28:15;;;;;;;4.10;2.08;;;29.40;49.50;;;;;;5001508;28;20042;-86